createdAt,value
2017-06-15T00:00:02.976Z,17
2017-06-15T00:01:03.277Z,17.06
2017-06-15T00:02:02.956Z,16.93
2017-06-15T00:03:03.255Z,16.95
2017-06-15T00:04:02.934Z,16.96
2017-06-15T00:05:03.242Z,16.9
2017-06-15T00:06:03.232Z,16.81
2017-06-15T00:07:02.906Z,16.88
2017-06-15T00:08:02.893Z,16.93
2017-06-15T00:09:03.198Z,16.78
2017-06-15T00:10:03.199Z,16.78
2017-06-15T00:11:02.868Z,16.78
2017-06-15T00:12:02.541Z,16.77
2017-06-15T00:13:02.850Z,16.88
2017-06-15T00:14:02.833Z,16.81
2017-06-15T00:15:02.839Z,16.75
2017-06-15T00:16:02.816Z,16.68
2017-06-15T00:17:02.808Z,16.73
2017-06-15T00:18:02.793Z,16.73
2017-06-15T00:19:02.785Z,16.7
2017-06-15T00:20:03.081Z,16.75
2017-06-15T00:21:03.078Z,16.63
2017-06-15T00:22:03.067Z,16.65
2017-06-15T00:23:02.747Z,16.6
2017-06-15T00:24:02.735Z,16.62
2017-06-15T00:25:02.722Z,16.58
2017-06-15T00:26:03.023Z,16.58
2017-06-15T00:27:02.701Z,16.62
2017-06-15T00:28:02.693Z,16.58
2017-06-15T00:29:02.990Z,16.6
2017-06-15T00:30:02.987Z,16.55
2017-06-15T00:31:02.348Z,16.55
2017-06-15T00:32:02.658Z,16.45
2017-06-15T00:33:02.952Z,16.44
2017-06-15T00:34:02.317Z,16.5
2017-06-15T00:35:02.303Z,16.44
2017-06-15T00:36:02.606Z,16.44
2017-06-15T00:37:02.598Z,16.49
2017-06-15T00:38:02.901Z,16.41
2017-06-15T00:39:02.577Z,16.34
2017-06-15T00:40:02.567Z,16.34
2017-06-15T00:41:02.244Z,16.33
2017-06-15T00:42:02.235Z,16.34
2017-06-15T00:43:02.535Z,16.31
2017-06-15T00:44:02.838Z,16.3
2017-06-15T00:45:02.519Z,16.26
2017-06-15T00:46:02.825Z,16.31
2017-06-15T00:47:02.805Z,16.27
2017-06-15T00:48:02.484Z,16.27
2017-06-15T00:49:02.784Z,16.2
2017-06-15T00:50:02.463Z,16.18
2017-06-15T00:51:02.450Z,16.15
2017-06-15T00:52:02.443Z,16.12
2017-06-15T00:53:02.430Z,16.15
2017-06-15T00:54:02.418Z,16.11
2017-06-15T00:55:02.719Z,16.15
2017-06-15T00:56:02.400Z,16.22
2017-06-15T00:57:02.390Z,16.11
2017-06-15T00:58:02.379Z,16.04
2017-06-15T00:59:02.680Z,16.07
2017-06-15T01:00:02.671Z,16.04
2017-06-15T01:01:02.662Z,16.01
2017-06-15T01:02:02.644Z,16.01
2017-06-15T01:03:02.346Z,15.93
2017-06-15T01:04:01.998Z,15.92
2017-06-15T01:05:02.612Z,15.94
2017-06-15T01:06:02.603Z,15.92
2017-06-15T01:07:02.598Z,15.93
2017-06-15T01:08:02.270Z,15.93
2017-06-15T01:09:02.578Z,15.86
2017-06-15T01:10:02.257Z,15.88
2017-06-15T01:11:02.552Z,15.79
2017-06-15T01:12:02.537Z,15.78
2017-06-15T01:13:02.215Z,15.79
2017-06-15T01:14:02.210Z,15.74
2017-06-15T01:15:01.882Z,15.74
2017-06-15T01:16:02.495Z,15.72
2017-06-15T01:17:01.864Z,15.74
2017-06-15T01:18:02.472Z,15.66
2017-06-15T01:19:02.467Z,15.64
2017-06-15T01:20:02.144Z,15.7
2017-06-15T01:21:02.440Z,15.63
2017-06-15T01:22:02.429Z,15.64
2017-06-15T01:23:02.628Z,15.66
2017-06-15T01:24:02.093Z,15.63
2017-06-15T01:25:02.092Z,15.61
2017-06-15T01:26:02.387Z,15.67
2017-06-15T01:27:02.060Z,15.67
2017-06-15T01:28:02.367Z,15.6
2017-06-15T01:29:02.040Z,15.52
2017-06-15T01:30:02.030Z,15.54
2017-06-15T01:31:02.023Z,15.52
2017-06-15T01:32:02.029Z,15.59
2017-06-15T01:33:02.002Z,15.59
2017-06-15T01:34:02.304Z,15.52
2017-06-15T01:35:01.980Z,15.49
2017-06-15T01:36:02.274Z,15.49
2017-06-15T01:37:01.960Z,15.61
2017-06-15T01:38:01.656Z,15.45
2017-06-15T01:39:02.254Z,15.48
2017-06-15T01:40:02.232Z,15.61
2017-06-15T01:41:02.222Z,15.59
2017-06-15T01:42:02.209Z,15.57
2017-06-15T01:43:01.570Z,15.57
2017-06-15T01:44:01.561Z,15.52
2017-06-15T01:45:01.927Z,15.49
2017-06-15T01:46:01.883Z,15.42
2017-06-15T01:47:02.156Z,15.49
2017-06-15T01:48:02.148Z,15.45
2017-06-15T01:49:02.134Z,15.46
2017-06-15T01:50:01.833Z,15.45
2017-06-15T01:51:01.811Z,15.49
2017-06-15T01:52:01.474Z,15.48
2017-06-15T01:53:02.089Z,15.48
2017-06-15T01:54:01.763Z,15.46
2017-06-15T01:55:01.757Z,15.43
2017-06-15T01:56:02.052Z,15.42
2017-06-15T01:57:01.418Z,15.38
2017-06-15T01:58:01.717Z,15.42
2017-06-15T01:59:02.021Z,15.45
2017-06-15T02:00:01.703Z,15.51
2017-06-15T02:01:01.684Z,15.45
2017-06-15T02:02:01.987Z,15.48
2017-06-15T02:03:01.978Z,15.49
2017-06-15T02:04:01.728Z,15.48
2017-06-15T02:05:01.638Z,15.45
2017-06-15T02:06:01.627Z,15.49
2017-06-15T02:07:01.305Z,15.45
2017-06-15T02:08:01.609Z,15.48
2017-06-15T02:09:01.285Z,15.59
2017-06-15T02:10:01.269Z,15.48
2017-06-15T02:11:01.574Z,15.48
2017-06-15T02:12:01.558Z,15.46
2017-06-15T02:13:01.553Z,15.48
2017-06-15T02:14:01.540Z,15.52
2017-06-15T02:15:01.848Z,15.49
2017-06-15T02:16:01.555Z,15.48
2017-06-15T02:17:01.711Z,15.48
2017-06-15T02:18:01.494Z,15.43
2017-06-15T02:19:01.168Z,15.43
2017-06-15T02:20:01.483Z,15.39
2017-06-15T02:21:01.478Z,15.45
2017-06-15T02:22:01.489Z,15.46
2017-06-15T02:23:01.454Z,15.45
2017-06-15T02:24:01.754Z,15.48
2017-06-15T02:25:01.755Z,15.35
2017-06-15T02:26:01.733Z,15.36
2017-06-15T02:27:01.406Z,15.41
2017-06-15T02:28:01.388Z,15.33
2017-06-15T02:29:01.074Z,15.41
2017-06-15T02:30:01.388Z,15.31
2017-06-15T02:31:01.347Z,15.35
2017-06-15T02:32:01.652Z,15.38
2017-06-15T02:33:01.326Z,15.42
2017-06-15T02:34:01.625Z,15.33
2017-06-15T02:35:01.617Z,15.36
2017-06-15T02:36:01.290Z,15.35
2017-06-15T02:37:01.283Z,15.24
2017-06-15T02:38:01.266Z,15.28
2017-06-15T02:39:01.257Z,15.36
2017-06-15T02:40:01.247Z,15.3
2017-06-15T02:41:01.234Z,15.35
2017-06-15T02:42:01.538Z,15.28
2017-06-15T02:43:01.214Z,15.3
2017-06-15T02:44:01.513Z,15.26
2017-06-15T02:45:00.878Z,15.27
2017-06-15T02:46:01.178Z,15.26
2017-06-15T02:47:01.180Z,15.31
2017-06-15T02:48:01.470Z,15.28
2017-06-15T02:49:01.460Z,15.27
2017-06-15T02:50:00.820Z,15.28
2017-06-15T02:51:01.123Z,15.26
2017-06-15T02:52:01.105Z,15.26
2017-06-15T02:53:01.137Z,15.27
2017-06-15T02:54:01.088Z,15.31
2017-06-15T02:55:01.388Z,15.26
2017-06-15T02:56:01.392Z,15.3
2017-06-15T02:57:01.366Z,15.28
2017-06-15T02:58:01.042Z,15.33
2017-06-15T02:59:00.715Z,15.28
2017-06-15T03:00:01.336Z,15.31
2017-06-15T03:01:01.007Z,15.24
2017-06-15T03:02:00.996Z,15.31
2017-06-15T03:03:00.988Z,15.27
2017-06-15T03:04:01.287Z,15.21
2017-06-15T03:05:01.271Z,15.26
2017-06-15T03:06:01.264Z,15.31
2017-06-15T03:07:00.945Z,15.28
2017-06-15T03:08:01.244Z,15.27
2017-06-15T03:09:01.230Z,15.21
2017-06-15T03:10:00.591Z,15.26
2017-06-15T03:11:01.203Z,15.26
2017-06-15T03:12:00.880Z,15.31
2017-06-15T03:13:00.909Z,15.21
2017-06-15T03:14:00.858Z,15.23
2017-06-15T03:15:00.850Z,15.31
2017-06-15T03:16:01.152Z,15.26
2017-06-15T03:17:00.826Z,15.24
2017-06-15T03:18:00.815Z,15.28
2017-06-15T03:19:00.801Z,15.24
2017-06-15T03:20:01.106Z,15.21
2017-06-15T03:21:00.780Z,15.27
2017-06-15T03:22:00.772Z,15.21
2017-06-15T03:23:01.274Z,15.24
2017-06-15T03:24:00.750Z,15.27
2017-06-15T03:25:01.056Z,15.26
2017-06-15T03:26:01.040Z,15.23
2017-06-15T03:27:00.395Z,15.26
2017-06-15T03:28:00.699Z,15.27
2017-06-15T03:29:00.686Z,15.28
2017-06-15T03:30:00.992Z,15.31
2017-06-15T03:31:00.663Z,15.23
2017-06-15T03:32:00.657Z,15.28
2017-06-15T03:33:00.973Z,15.26
2017-06-15T03:34:00.632Z,15.28
2017-06-15T03:35:00.620Z,15.28
2017-06-15T03:36:00.918Z,15.26
2017-06-15T03:37:00.284Z,15.23
2017-06-15T03:38:00.901Z,15.3
2017-06-15T03:39:00.259Z,15.35
2017-06-15T03:40:00.568Z,15.28
2017-06-15T03:41:00.866Z,15.21
2017-06-15T03:42:00.545Z,15.27
2017-06-15T03:43:00.843Z,15.31
2017-06-15T03:44:00.524Z,15.33
2017-06-15T03:45:00.506Z,15.39
2017-06-15T03:46:00.806Z,15.33
2017-06-15T03:47:00.498Z,15.35
2017-06-15T03:48:00.473Z,15.35
2017-06-15T03:49:00.774Z,15.36
2017-06-15T03:50:00.448Z,15.3
2017-06-15T03:51:00.754Z,15.31
2017-06-15T03:52:00.738Z,15.38
2017-06-15T03:53:00.724Z,15.41
2017-06-15T03:54:00.413Z,15.43
2017-06-15T03:55:00.706Z,15.41
2017-06-15T03:56:00.377Z,15.41
2017-06-15T03:57:00.365Z,15.33
2017-06-15T03:58:00.357Z,15.41
2017-06-15T03:59:00.346Z,15.41
2017-06-15T04:00:00.332Z,15.36
2017-06-15T04:01:00.322Z,15.43
2017-06-15T04:01:59.999Z,15.39
2017-06-15T04:03:00.309Z,15.41
2017-06-15T04:04:00.289Z,15.43
2017-06-15T04:05:00.593Z,15.41
2017-06-15T04:06:00.580Z,15.39
2017-06-15T04:07:00.569Z,15.42
2017-06-15T04:07:59.930Z,15.45
2017-06-15T04:09:00.547Z,15.45
2017-06-15T04:10:00.221Z,15.46
2017-06-15T04:11:00.208Z,15.43
2017-06-15T04:12:00.195Z,15.46
2017-06-15T04:13:00.184Z,15.43
2017-06-15T04:14:00.489Z,15.49
2017-06-15T04:15:00.476Z,15.41
2017-06-15T04:15:59.842Z,15.42
2017-06-15T04:17:00.140Z,15.45
2017-06-15T04:18:00.132Z,15.49
2017-06-15T04:19:00.120Z,15.43
2017-06-15T04:20:00.110Z,15.48
2017-06-15T04:21:00.101Z,15.43
2017-06-15T04:22:00.395Z,15.56
2017-06-15T04:23:00.073Z,15.54
2017-06-15T04:23:59.751Z,15.59
2017-06-15T04:25:00.367Z,15.54
2017-06-15T04:26:00.042Z,15.54
2017-06-15T04:27:00.343Z,15.54
2017-06-15T04:28:00.021Z,15.56
2017-06-15T04:29:00.006Z,15.56
2017-06-15T04:29:59.993Z,15.61
2017-06-15T04:30:59.986Z,15.54
2017-06-15T04:32:00.288Z,15.66
2017-06-15T04:33:00.276Z,15.68
2017-06-15T04:34:00.264Z,15.66
2017-06-15T04:34:59.942Z,15.66
2017-06-15T04:36:00.239Z,15.74
2017-06-15T04:36:59.603Z,15.74
2017-06-15T04:38:00.235Z,15.68
2017-06-15T04:39:00.208Z,15.84
2017-06-15T04:39:59.884Z,15.82
2017-06-15T04:41:00.189Z,15.88
2017-06-15T04:42:00.177Z,15.93
2017-06-15T04:43:00.164Z,15.94
2017-06-15T04:43:59.841Z,15.93
2017-06-15T04:45:00.139Z,15.94
2017-06-15T04:45:59.819Z,16
2017-06-15T04:46:59.813Z,16.06
2017-06-15T04:47:59.484Z,16.03
2017-06-15T04:49:00.098Z,16.11
2017-06-15T04:50:00.090Z,16.15
2017-06-15T04:50:59.763Z,16.2
2017-06-15T04:51:59.752Z,16.26
2017-06-15T04:52:59.746Z,16.26
2017-06-15T04:53:59.754Z,16.25
2017-06-15T04:54:59.729Z,16.3
2017-06-15T04:55:59.713Z,16.35
2017-06-15T04:57:00.013Z,16.49
2017-06-15T04:57:59.690Z,16.5
2017-06-15T04:58:59.674Z,16.5
2017-06-15T04:59:59.982Z,16.56
2017-06-15T05:00:59.662Z,16.58
2017-06-15T05:01:59.651Z,16.7
2017-06-15T05:02:59.952Z,16.71
2017-06-15T05:03:59.623Z,16.74
2017-06-15T05:04:59.639Z,16.85
2017-06-15T05:05:59.293Z,16.81
2017-06-15T05:06:59.905Z,16.83
2017-06-15T05:07:59.899Z,16.86
2017-06-15T05:08:59.576Z,16.93
2017-06-15T05:09:59.564Z,16.95
2017-06-15T05:10:59.555Z,17.04
2017-06-15T05:11:59.854Z,17.1
2017-06-15T05:12:59.220Z,17.08
2017-06-15T05:13:59.855Z,17.07
2017-06-15T05:14:59.513Z,17.15
2017-06-15T05:15:59.205Z,17.17
2017-06-15T05:16:59.496Z,17.23
2017-06-15T05:17:59.485Z,17.35
2017-06-15T05:18:59.203Z,17.33
2017-06-15T05:19:59.461Z,17.33
2017-06-15T05:20:59.765Z,17.32
2017-06-15T05:21:59.450Z,17.5
2017-06-15T05:22:59.835Z,17.55
2017-06-15T05:23:59.736Z,17.55
2017-06-15T05:24:59.415Z,17.57
2017-06-15T05:25:59.099Z,17.54
2017-06-15T05:26:59.707Z,17.55
2017-06-15T05:27:59.392Z,17.63
2017-06-15T05:28:59.683Z,17.76
2017-06-15T05:29:59.675Z,17.71
2017-06-15T05:30:59.382Z,17.81
2017-06-15T05:31:59.359Z,17.81
2017-06-15T05:32:59.647Z,17.87
2017-06-15T05:33:59.326Z,17.89
2017-06-15T05:34:59.623Z,18
2017-06-15T05:35:59.619Z,17.97
2017-06-15T05:36:59.301Z,17.92
2017-06-15T05:37:59.291Z,18.1
2017-06-15T05:38:59.285Z,18.07
2017-06-15T05:39:58.956Z,18.12
2017-06-15T05:40:59.576Z,18.13
2017-06-15T05:41:58.935Z,18.15
2017-06-15T05:42:59.549Z,18.1
2017-06-15T05:43:59.541Z,18.13
2017-06-15T05:44:59.219Z,18.33
2017-06-15T05:45:59.527Z,18.22
2017-06-15T05:46:59.203Z,18.22
2017-06-15T05:47:59.511Z,18.28
2017-06-15T05:48:59.180Z,18.36
2017-06-15T05:49:59.486Z,18.42
2017-06-15T05:50:59.477Z,18.43
2017-06-15T05:51:59.477Z,18.52
2017-06-15T05:52:59.164Z,18.5
2017-06-15T05:53:59.137Z,18.54
2017-06-15T05:54:59.438Z,18.62
2017-06-15T05:55:59.431Z,18.59
2017-06-15T05:56:59.105Z,18.62
2017-06-15T05:57:58.787Z,18.65
2017-06-15T05:58:59.087Z,18.73
2017-06-15T05:59:59.396Z,18.79
2017-06-15T06:00:59.070Z,18.8
2017-06-15T06:01:59.064Z,18.91
2017-06-15T06:02:59.381Z,18.91
2017-06-15T06:03:59.046Z,18.95
2017-06-15T06:04:59.399Z,18.97
2017-06-15T06:05:58.721Z,19.06
2017-06-15T06:06:59.359Z,19.06
2017-06-15T06:07:58.692Z,19.14
2017-06-15T06:08:59.314Z,19.21
2017-06-15T06:09:59.298Z,19.21
2017-06-15T06:10:58.978Z,19.25
2017-06-15T06:11:59.282Z,19.36
2017-06-15T06:12:58.961Z,19.31
2017-06-15T06:13:58.957Z,19.33
2017-06-15T06:14:58.943Z,19.42
2017-06-15T06:15:58.983Z,19.69
2017-06-15T06:16:59.241Z,19.93
2017-06-15T06:17:58.917Z,20.27
2017-06-15T06:18:59.263Z,20.43
2017-06-15T06:19:59.221Z,20.53
2017-06-15T06:20:58.650Z,20.58
2017-06-15T06:21:58.892Z,20.62
2017-06-15T06:22:58.887Z,20.66
2017-06-15T06:23:58.878Z,20.74
2017-06-15T06:24:59.309Z,20.66
2017-06-15T06:25:59.222Z,20.71
2017-06-15T06:26:59.162Z,20.71
2017-06-15T06:27:58.846Z,20.66
2017-06-15T06:28:58.843Z,20.71
2017-06-15T06:29:58.830Z,20.71
2017-06-15T06:30:58.827Z,20.72
2017-06-15T06:31:58.508Z,20.8
2017-06-15T06:32:59.146Z,20.81
2017-06-15T06:33:58.813Z,20.87
2017-06-15T06:34:59.160Z,20.87
2017-06-15T06:35:58.478Z,20.93
2017-06-15T06:36:59.095Z,20.95
2017-06-15T06:37:59.093Z,20.99
2017-06-15T06:38:58.775Z,20.93
2017-06-15T06:39:59.127Z,21.05
2017-06-15T06:40:59.068Z,21.17
2017-06-15T06:41:58.752Z,21.16
2017-06-15T06:42:59.060Z,21.13
2017-06-15T06:43:59.053Z,21.24
2017-06-15T06:44:58.414Z,21.3
2017-06-15T06:45:58.719Z,21.24
2017-06-15T06:46:59.023Z,21.56
2017-06-15T06:47:58.705Z,21.83
2017-06-15T06:48:58.704Z,22.23
2017-06-15T06:49:58.689Z,22.44
2017-06-15T06:50:58.376Z,23.07
2017-06-15T06:51:58.674Z,23.5
2017-06-15T06:52:58.984Z,23.82
2017-06-15T06:53:58.977Z,24.23
2017-06-15T06:54:58.659Z,24.69
2017-06-15T06:55:58.654Z,25.05
2017-06-15T06:56:58.334Z,25.27
2017-06-15T06:57:58.638Z,25.27
2017-06-15T06:58:58.954Z,25.32
2017-06-15T06:59:58.678Z,25.42
2017-06-15T07:00:58.934Z,25.39
2017-06-15T07:01:58.639Z,25.57
2017-06-15T07:02:58.920Z,25.8
2017-06-15T07:03:58.913Z,26.09
2017-06-15T07:04:58.633Z,26.25
2017-06-15T07:05:58.588Z,26.36
2017-06-15T07:06:58.584Z,26.28
2017-06-15T07:07:58.264Z,26.09
2017-06-15T07:08:58.886Z,25.8
2017-06-15T07:09:58.253Z,25.83
2017-06-15T07:10:58.873Z,25.74
2017-06-15T07:11:58.552Z,25.59
2017-06-15T07:12:58.233Z,25.8
2017-06-15T07:13:58.856Z,26.08
2017-06-15T07:14:58.226Z,26.36
2017-06-15T07:15:58.533Z,26.59
2017-06-15T07:16:58.210Z,26.96
2017-06-15T07:17:58.520Z,27.32
2017-06-15T07:18:58.519Z,27.84
2017-06-15T07:19:58.510Z,28.36
2017-06-15T07:20:58.510Z,28.72
2017-06-15T07:21:58.814Z,29.06
2017-06-15T07:22:58.700Z,29.4
2017-06-15T07:23:58.175Z,29.55
2017-06-15T07:24:58.486Z,29.71
2017-06-15T07:25:58.486Z,29.72
2017-06-15T07:26:58.795Z,29.78
2017-06-15T07:27:58.477Z,29.87
2017-06-15T07:28:58.788Z,30.03
2017-06-15T07:29:58.783Z,30.11
2017-06-15T07:30:58.466Z,30.31
2017-06-15T07:31:58.462Z,30.23
2017-06-15T07:32:58.468Z,30.24
2017-06-15T07:33:58.471Z,30.16
2017-06-15T07:34:58.767Z,30.3
2017-06-15T07:35:58.764Z,30.21
2017-06-15T07:36:58.459Z,30.47
2017-06-15T07:37:58.450Z,30.78
2017-06-15T07:38:58.192Z,30.99
2017-06-15T07:39:58.449Z,31.24
2017-06-15T07:40:58.447Z,31.48
2017-06-15T07:41:58.446Z,31.57
2017-06-15T07:42:58.443Z,31.61
2017-06-15T07:43:58.757Z,31.58
2017-06-15T07:44:58.758Z,31.76
2017-06-15T07:45:58.752Z,31.75
2017-06-15T07:46:58.119Z,31.64
2017-06-15T07:47:58.431Z,31.6
2017-06-15T07:48:58.429Z,31.12
2017-06-15T07:49:58.742Z,30.96
2017-06-15T07:50:58.740Z,30.93
2017-06-15T07:51:58.749Z,30.83
2017-06-15T07:52:58.116Z,30.61
2017-06-15T07:53:58.428Z,30.29
2017-06-15T07:54:58.430Z,29.89
2017-06-15T07:55:58.741Z,29.44
2017-06-15T07:56:58.737Z,29.19
2017-06-15T07:57:58.732Z,29.08
2017-06-15T07:58:58.423Z,28.7
2017-06-15T07:59:58.426Z,28.62
2017-06-15T08:00:58.421Z,28.66
2017-06-15T08:01:58.107Z,28.72
2017-06-15T08:02:58.729Z,28.82
2017-06-15T08:03:58.418Z,28.87
2017-06-15T08:04:58.409Z,28.93
2017-06-15T08:05:58.410Z,28.7
2017-06-15T08:06:58.720Z,28.66
2017-06-15T08:07:58.721Z,28.63
2017-06-15T08:08:58.408Z,28.6
2017-06-15T08:09:58.090Z,28.7
2017-06-15T08:10:58.727Z,28.72
2017-06-15T08:11:58.094Z,28.75
2017-06-15T08:12:58.397Z,28.78
2017-06-15T08:13:58.085Z,28.88
2017-06-15T08:14:58.408Z,28.95
2017-06-15T08:15:58.709Z,28.9
2017-06-15T08:16:58.709Z,28.88
2017-06-15T08:17:58.388Z,29.06
2017-06-15T08:18:58.080Z,29.06
2017-06-15T08:19:58.704Z,29.16
2017-06-15T08:20:58.706Z,29.18
2017-06-15T08:21:58.070Z,29.29
2017-06-15T08:22:58.388Z,29.31
2017-06-15T08:23:58.692Z,29.31
2017-06-15T08:24:58.430Z,29.43
2017-06-15T08:25:58.687Z,29.55
2017-06-15T08:26:58.373Z,29.66
2017-06-15T08:27:58.378Z,29.74
2017-06-15T08:28:58.370Z,29.87
2017-06-15T08:29:58.375Z,30.02
2017-06-15T08:30:58.698Z,30.21
2017-06-15T08:31:58.683Z,30.19
2017-06-15T08:32:58.693Z,30.53
2017-06-15T08:33:58.056Z,30.84
2017-06-15T08:34:58.366Z,31.09
2017-06-15T08:35:58.371Z,31.45
2017-06-15T08:36:58.692Z,31.68
2017-06-15T08:37:58.368Z,31.7
2017-06-15T08:38:58.362Z,31.96
2017-06-15T08:39:58.361Z,31.99
2017-06-15T08:40:58.681Z,32.05
2017-06-15T08:41:58.046Z,32.13
2017-06-15T08:42:58.680Z,32.21
2017-06-15T08:43:58.368Z,32.18
2017-06-15T08:44:58.680Z,32
2017-06-15T08:45:58.364Z,31.95
2017-06-15T08:46:58.408Z,32.2
2017-06-15T08:47:58.676Z,32.27
2017-06-15T08:48:58.365Z,32.33
2017-06-15T08:49:58.365Z,32.37
2017-06-15T08:50:58.696Z,32.21
2017-06-15T08:51:58.052Z,32.14
2017-06-15T08:52:58.055Z,31.93
2017-06-15T08:53:58.691Z,31.76
2017-06-15T08:54:58.054Z,31.53
2017-06-15T08:55:58.371Z,31.2
2017-06-15T08:56:58.370Z,30.96
2017-06-15T08:57:58.368Z,30.83
2017-06-15T08:58:58.684Z,30.75
2017-06-15T08:59:58.370Z,30.61
2017-06-15T09:00:58.679Z,30.56
2017-06-15T09:01:58.680Z,30.54
2017-06-15T09:02:58.375Z,30.26
2017-06-15T09:03:58.372Z,29.96
2017-06-15T09:04:58.070Z,29.87
2017-06-15T09:05:58.680Z,29.66
2017-06-15T09:06:58.047Z,29.56
2017-06-15T09:07:58.366Z,29.59
2017-06-15T09:08:58.681Z,29.59
2017-06-15T09:09:58.371Z,29.6
2017-06-15T09:10:58.684Z,29.53
2017-06-15T09:11:58.360Z,29.52
2017-06-15T09:12:58.357Z,29.56
2017-06-15T09:13:58.047Z,29.84
2017-06-15T09:14:58.044Z,30.29
2017-06-15T09:15:58.353Z,30.75
2017-06-15T09:16:58.671Z,30.8
2017-06-15T09:17:58.044Z,30.57
2017-06-15T09:18:58.666Z,30.47
2017-06-15T09:19:58.675Z,30.12
2017-06-15T09:20:58.045Z,30.03
2017-06-15T09:21:58.710Z,30.3
2017-06-15T09:22:58.043Z,30.43
2017-06-15T09:23:58.357Z,30.46
2017-06-15T09:24:58.690Z,30.43
2017-06-15T09:25:58.360Z,30.76
2017-06-15T09:26:58.371Z,31.27
2017-06-15T09:27:58.679Z,31.18
2017-06-15T09:28:58.045Z,31.53
2017-06-15T09:29:58.088Z,31.6
2017-06-15T09:30:58.411Z,31.73
2017-06-15T09:31:58.051Z,31.65
2017-06-15T09:32:58.059Z,31.62
2017-06-15T09:33:58.364Z,31.98
2017-06-15T09:34:58.366Z,32.24
2017-06-15T09:35:58.736Z,32.49
2017-06-15T09:36:58.369Z,32.71
2017-06-15T09:37:58.401Z,32.73
2017-06-15T09:38:58.378Z,32.95
2017-06-15T09:39:58.378Z,33.14
2017-06-15T09:40:58.691Z,33.33
2017-06-15T09:41:58.444Z,33.39
2017-06-15T09:42:58.693Z,33.48
2017-06-15T09:43:58.387Z,33.76
2017-06-15T09:44:58.074Z,33.74
2017-06-15T09:45:58.079Z,33.49
2017-06-15T09:46:58.089Z,33.19
2017-06-15T09:47:58.080Z,33.23
2017-06-15T09:48:58.398Z,33.33
2017-06-15T09:49:58.401Z,33.39
2017-06-15T09:50:58.405Z,33.6
2017-06-15T09:51:58.409Z,33.14
2017-06-15T09:52:58.724Z,32.79
2017-06-15T09:53:58.410Z,32.48
2017-06-15T09:54:58.757Z,32.61
2017-06-15T09:55:58.425Z,32.66
2017-06-15T09:56:58.424Z,32.81
2017-06-15T09:57:58.422Z,33.06
2017-06-15T09:58:58.747Z,33.17
2017-06-15T09:59:58.747Z,32.93
2017-06-15T10:00:58.435Z,33.13
2017-06-15T10:01:58.756Z,33.3
2017-06-15T10:02:58.445Z,33.33
2017-06-15T10:03:58.758Z,33.43
2017-06-15T10:04:58.469Z,33.67
2017-06-15T10:05:58.465Z,33.8
2017-06-15T10:06:58.152Z,33.9
2017-06-15T10:07:58.778Z,34.13
2017-06-15T10:08:58.463Z,34.34
2017-06-15T10:09:58.154Z,34.57
2017-06-15T10:10:58.787Z,34.7
2017-06-15T10:11:58.477Z,34.42
2017-06-15T10:12:58.170Z,34.31
2017-06-15T10:13:58.483Z,34.2
2017-06-15T10:14:58.798Z,33.83
2017-06-15T10:15:58.810Z,33.95
2017-06-15T10:16:58.813Z,34.02
2017-06-15T10:17:58.188Z,34.39
2017-06-15T10:18:58.818Z,34.36
2017-06-15T10:19:58.826Z,34.46
2017-06-15T10:20:58.509Z,34.19
2017-06-15T10:21:58.833Z,33.17
2017-06-15T10:22:58.832Z,32.81
2017-06-15T10:23:58.834Z,32.84
2017-06-15T10:24:58.526Z,32.57
2017-06-15T10:25:58.850Z,32.25
2017-06-15T10:26:58.221Z,31.92
2017-06-15T10:27:58.856Z,31.58
2017-06-15T10:28:58.549Z,31.45
2017-06-15T10:29:58.543Z,31.13
2017-06-15T10:30:58.546Z,31.12
2017-06-15T10:31:58.233Z,31.01
2017-06-15T10:32:58.286Z,31.05
2017-06-15T10:33:58.556Z,31.12
2017-06-15T10:34:58.552Z,31.23
2017-06-15T10:35:58.550Z,31.17
2017-06-15T10:36:58.869Z,31.3
2017-06-15T10:37:58.875Z,31.31
2017-06-15T10:38:58.557Z,31.48
2017-06-15T10:39:58.564Z,31.6
2017-06-15T10:40:58.894Z,31.54
2017-06-15T10:41:58.874Z,31.82
2017-06-15T10:42:58.246Z,32.15
2017-06-15T10:43:58.250Z,32.47
2017-06-15T10:44:58.256Z,32.91
2017-06-15T10:45:58.876Z,33.14
2017-06-15T10:46:58.616Z,33.22
2017-06-15T10:47:58.253Z,33.2
2017-06-15T10:48:58.897Z,33.07
2017-06-15T10:49:58.568Z,32.98
2017-06-15T10:50:58.583Z,32.98
2017-06-15T10:51:58.889Z,32.89
2017-06-15T10:52:58.578Z,32.85
2017-06-15T10:53:58.583Z,33.04
2017-06-15T10:54:58.633Z,32.91
2017-06-15T10:55:58.584Z,32.85
2017-06-15T10:56:58.634Z,32.76
2017-06-15T10:57:58.615Z,32.61
2017-06-15T10:58:58.637Z,32.48
2017-06-15T10:59:58.286Z,32.4
2017-06-15T11:00:58.594Z,32.36
2017-06-15T11:01:58.905Z,32.22
2017-06-15T11:02:58.595Z,31.98
2017-06-15T11:03:58.590Z,31.99
2017-06-15T11:04:58.286Z,31.85
2017-06-15T11:05:58.594Z,31.98
2017-06-15T11:06:58.910Z,31.84
2017-06-15T11:07:58.601Z,31.95
2017-06-15T11:08:58.604Z,32.11
2017-06-15T11:09:58.916Z,32.05
2017-06-15T11:10:58.611Z,32.07
2017-06-15T11:11:58.925Z,31.87
2017-06-15T11:12:58.926Z,31.8
2017-06-15T11:13:58.921Z,31.85
2017-06-15T11:14:58.925Z,31.93
2017-06-15T11:15:58.609Z,32.47
2017-06-15T11:16:58.301Z,32.86
2017-06-15T11:17:58.616Z,33.04
2017-06-15T11:18:58.299Z,33.34
2017-06-15T11:19:58.616Z,33.49
2017-06-15T11:20:58.944Z,33.57
2017-06-15T11:21:58.318Z,33.7
2017-06-15T11:22:58.626Z,33.83
2017-06-15T11:23:59.149Z,34.07
2017-06-15T11:24:58.632Z,34
2017-06-15T11:25:58.637Z,33.94
2017-06-15T11:26:58.642Z,34.17
2017-06-15T11:27:58.331Z,34.17
2017-06-15T11:28:58.642Z,34.2
2017-06-15T11:29:58.965Z,34.31
2017-06-15T11:30:58.648Z,34.42
2017-06-15T11:31:58.340Z,34.57
2017-06-15T11:32:58.655Z,34.7
2017-06-15T11:33:58.978Z,34.79
2017-06-15T11:34:58.353Z,34.95
2017-06-15T11:35:58.983Z,35.01
2017-06-15T11:36:58.361Z,35.06
2017-06-15T11:37:58.690Z,35.06
2017-06-15T11:38:58.682Z,34.95
2017-06-15T11:39:58.999Z,35.1
2017-06-15T11:40:58.376Z,35.18
2017-06-15T11:41:58.699Z,35.33
2017-06-15T11:42:58.722Z,35.29
2017-06-15T11:43:58.397Z,35.28
2017-06-15T11:44:58.707Z,34.91
2017-06-15T11:45:58.715Z,34.94
2017-06-15T11:46:59.030Z,34.98
2017-06-15T11:47:58.771Z,35.03
2017-06-15T11:48:58.737Z,35.07
2017-06-15T11:49:58.418Z,35.21
2017-06-15T11:50:58.746Z,35.08
2017-06-15T11:51:58.428Z,35.17
2017-06-15T11:52:59.062Z,35.48
2017-06-15T11:53:58.746Z,35.63
2017-06-15T11:54:58.754Z,35.4
2017-06-15T11:55:58.775Z,35.63
2017-06-15T11:56:58.450Z,35.55
2017-06-15T11:57:59.085Z,35.69
2017-06-15T11:58:58.776Z,35.89
2017-06-15T11:59:59.101Z,35.89
2017-06-15T12:00:58.787Z,35.91
2017-06-15T12:01:58.802Z,35.95
2017-06-15T12:02:58.791Z,35.81
2017-06-15T12:03:59.113Z,35.7
2017-06-15T12:04:58.490Z,35.7
2017-06-15T12:05:58.808Z,35.7
2017-06-15T12:06:59.124Z,35.66
2017-06-15T12:07:58.812Z,35.58
2017-06-15T12:08:59.131Z,35.57
2017-06-15T12:09:59.201Z,35.57
2017-06-15T12:10:59.142Z,35.35
2017-06-15T12:11:58.523Z,35.39
2017-06-15T12:12:59.154Z,35.5
2017-06-15T12:13:58.845Z,35.82
2017-06-15T12:14:58.850Z,35.92
2017-06-15T12:15:58.544Z,35.82
2017-06-15T12:16:58.540Z,35.89
2017-06-15T12:17:58.868Z,36
2017-06-15T12:18:58.869Z,35.92
2017-06-15T12:19:58.874Z,36
2017-06-15T12:20:58.886Z,36.01
2017-06-15T12:21:59.407Z,36.19
2017-06-15T12:22:58.575Z,36.23
2017-06-15T12:23:58.898Z,36.36
2017-06-15T12:24:58.897Z,36.45
2017-06-15T12:25:58.909Z,36.56
2017-06-15T12:26:58.900Z,36.58
2017-06-15T12:27:58.908Z,36.46
2017-06-15T12:28:59.224Z,36.49
2017-06-15T12:29:58.918Z,36.6
2017-06-15T12:30:59.237Z,36.65
2017-06-15T12:31:58.927Z,36.7
2017-06-15T12:32:58.618Z,36.7
2017-06-15T12:33:59.252Z,36.49
2017-06-15T12:34:58.939Z,36.2
2017-06-15T12:35:59.257Z,36.27
2017-06-15T12:36:59.262Z,36.19
2017-06-15T12:37:59.266Z,36.24
2017-06-15T12:38:58.960Z,36.48
2017-06-15T12:39:59.277Z,36.45
2017-06-15T12:40:58.967Z,36.45
2017-06-15T12:41:58.975Z,36
2017-06-15T12:42:58.976Z,35.95
2017-06-15T12:43:58.670Z,36.33
2017-06-15T12:44:58.991Z,36.39
2017-06-15T12:45:59.302Z,35.85
2017-06-15T12:46:58.994Z,35.66
2017-06-15T12:47:59.312Z,35.67
2017-06-15T12:48:59.321Z,35.91
2017-06-15T12:49:59.346Z,36.24
2017-06-15T12:50:59.329Z,36.21
2017-06-15T12:51:59.021Z,36.23
2017-06-15T12:52:59.342Z,36
2017-06-15T12:53:59.031Z,35.91
2017-06-15T12:54:58.717Z,35.95